createdAt,value
2023-04-02T00:00:41.393Z,35.36
2023-04-02T00:01:41.399Z,35.55
2023-04-02T00:02:41.403Z,37.51
2023-04-02T00:03:41.464Z,34.64
2023-04-02T00:04:41.358Z,34.19
2023-04-02T00:05:41.342Z,35.23
2023-04-02T00:06:41.332Z,37.95
2023-04-02T00:07:41.359Z,33.76
2023-04-02T00:08:41.383Z,35.84
2023-04-02T00:09:41.422Z,33.92
2023-04-02T00:10:41.452Z,36.63
2023-04-02T00:11:41.466Z,33.90
2023-04-02T00:12:41.520Z,34.95
2023-04-02T00:13:41.559Z,35.83
2023-04-02T00:14:41.605Z,34.83
2023-04-02T00:15:41.654Z,35.49
2023-04-02T00:16:41.786Z,36.41
2023-04-02T00:17:41.763Z,36.26
2023-04-02T00:18:41.796Z,37.16
2023-04-02T00:19:41.852Z,35.58
2023-04-02T00:20:41.845Z,36.14
2023-04-02T00:21:41.864Z,34.09
2023-04-02T00:22:41.897Z,36.36
2023-04-02T00:23:41.917Z,35.45
2023-04-02T00:24:41.934Z,36.15
2023-04-02T00:25:41.964Z,35.35
2023-04-02T00:26:41.993Z,37.11
2023-04-02T00:27:42.038Z,35.16
2023-04-02T00:28:42.104Z,34.63
2023-04-02T00:29:42.156Z,35.26
2023-04-02T00:30:42.215Z,35.22
2023-04-02T00:31:42.323Z,35.23
2023-04-02T00:32:42.348Z,35.84
2023-04-02T00:33:42.352Z,37.87
2023-04-02T00:34:42.393Z,34.98
2023-04-02T00:35:42.448Z,37.35
2023-04-02T00:36:42.449Z,35.11
2023-04-02T00:37:42.476Z,34.46
2023-04-02T00:38:42.518Z,36.59
2023-04-02T00:39:42.547Z,35.31
2023-04-02T00:40:42.563Z,36.26
2023-04-02T00:41:42.570Z,35.20
2023-04-02T00:42:42.594Z,33.04
2023-04-02T00:43:42.586Z,34.45
2023-04-02T00:44:42.584Z,36.03
2023-04-02T00:45:42.636Z,35.68
2023-04-02T00:46:42.638Z,36.94
2023-04-02T00:47:42.715Z,35.05
2023-04-02T00:48:42.687Z,36.46
2023-04-02T00:49:42.705Z,35.80
2023-04-02T00:50:42.714Z,38.22
2023-04-02T00:51:42.684Z,34.25
2023-04-02T00:52:42.685Z,36.11
2023-04-02T00:53:42.713Z,34.11
2023-04-02T00:54:42.728Z,35.02
2023-04-02T00:55:42.741Z,35.70
2023-04-02T00:56:42.764Z,37.24
2023-04-02T00:57:42.770Z,36.25
2023-04-02T00:58:42.805Z,36.93
2023-04-02T00:59:42.846Z,36.07
2023-04-02T01:00:42.847Z,37.45
2023-04-02T01:01:42.939Z,34.95
2023-04-02T01:02:42.892Z,34.81
2023-04-02T01:03:42.985Z,35.84
2023-04-02T01:04:42.814Z,35.68
2023-04-02T01:05:42.838Z,34.60
2023-04-02T01:06:42.869Z,38.19
2023-04-02T01:07:42.906Z,38.34
2023-04-02T01:08:42.926Z,32.36
2023-04-02T01:09:42.956Z,37.52
2023-04-02T01:10:42.965Z,36.79
2023-04-02T01:11:42.990Z,35.46
2023-04-02T01:12:43.013Z,36.98
2023-04-02T01:13:43.030Z,35.52
2023-04-02T01:14:43.065Z,35.95
2023-04-02T01:15:43.147Z,36.54
2023-04-02T01:16:43.104Z,34.18
2023-04-02T01:17:43.207Z,38.00
2023-04-02T01:18:43.138Z,32.06
2023-04-02T01:19:43.166Z,33.65
2023-04-02T01:20:43.181Z,35.71
2023-04-02T01:21:43.216Z,36.42
2023-04-02T01:22:43.260Z,33.16
2023-04-02T01:23:43.280Z,32.08
2023-04-02T01:24:43.310Z,35.18
2023-04-02T01:25:43.353Z,35.41
2023-04-02T01:26:43.373Z,35.27
2023-04-02T01:27:43.388Z,36.08
2023-04-02T01:28:43.420Z,36.33
2023-04-02T01:29:43.474Z,33.68
2023-04-02T01:30:43.535Z,31.88
2023-04-02T01:31:43.694Z,34.26
2023-04-02T01:32:43.682Z,32.55
2023-04-02T01:33:43.634Z,33.32
2023-04-02T01:34:43.607Z,34.86
2023-04-02T01:35:43.622Z,32.42
2023-04-02T01:36:43.598Z,32.48
2023-04-02T01:37:43.568Z,32.67
2023-04-02T01:38:43.580Z,31.89
2023-04-02T01:39:43.561Z,32.89
2023-04-02T01:40:43.586Z,35.36
2023-04-02T01:41:43.643Z,33.14
2023-04-02T01:42:43.704Z,34.90
2023-04-02T01:43:43.741Z,35.53
2023-04-02T01:44:43.802Z,35.69
2023-04-02T01:45:43.847Z,35.07
2023-04-02T01:46:43.945Z,35.22
2023-04-02T01:47:44.005Z,31.45
2023-04-02T01:48:43.972Z,33.35
2023-04-02T01:49:44.012Z,33.49
2023-04-02T01:50:44.055Z,35.82
2023-04-02T01:51:44.089Z,32.45
2023-04-02T01:52:44.124Z,34.14
2023-04-02T01:53:44.180Z,33.45
2023-04-02T01:54:44.242Z,33.99
2023-04-02T01:55:44.297Z,32.05
2023-04-02T01:56:44.326Z,34.72
2023-04-02T01:57:44.377Z,35.88
2023-04-02T01:58:44.387Z,33.32
2023-04-02T01:59:44.430Z,36.49
2023-04-02T02:00:44.512Z,34.58
2023-04-02T02:01:44.528Z,35.97
2023-04-02T02:02:44.625Z,39.70
2023-04-02T02:03:44.525Z,33.70
2023-04-02T02:04:44.514Z,35.74
2023-04-02T02:05:44.517Z,32.30
2023-04-02T02:06:44.542Z,34.74
2023-04-02T02:07:44.580Z,34.02
2023-04-02T02:08:44.621Z,35.00
2023-04-02T02:09:44.655Z,35.42
2023-04-02T02:10:44.704Z,33.48
2023-04-02T02:11:44.727Z,35.29
2023-04-02T02:12:44.738Z,35.11
2023-04-02T02:13:44.732Z,35.07
2023-04-02T02:14:44.707Z,34.81
2023-04-02T02:15:44.698Z,32.91
2023-04-02T02:16:44.858Z,35.11
2023-04-02T02:17:44.840Z,34.27
2023-04-02T02:18:44.743Z,36.15
2023-04-02T02:19:44.773Z,33.86
2023-04-02T02:20:44.786Z,35.50
2023-04-02T02:21:44.843Z,34.64
2023-04-02T02:22:44.812Z,33.56
2023-04-02T02:23:44.821Z,34.78
2023-04-02T02:24:44.814Z,33.72
2023-04-02T02:25:44.783Z,34.73
2023-04-02T02:26:44.809Z,33.32
2023-04-02T02:27:44.850Z,33.68
2023-04-02T02:28:44.866Z,32.22
2023-04-02T02:29:44.882Z,34.27
2023-04-02T02:30:44.908Z,34.43
2023-04-02T02:31:44.995Z,33.00
2023-04-02T02:32:44.991Z,34.04
2023-04-02T02:33:44.973Z,34.09
2023-04-02T02:34:44.985Z,34.70
2023-04-02T02:35:45.029Z,33.15
2023-04-02T02:36:45.034Z,34.06
2023-04-02T02:37:45.067Z,35.94
2023-04-02T02:38:45.057Z,34.25
2023-04-02T02:39:45.071Z,35.05
2023-04-02T02:40:45.070Z,33.94
2023-04-02T02:41:45.064Z,32.42
2023-04-02T02:42:45.047Z,33.41
2023-04-02T02:43:45.034Z,35.08
2023-04-02T02:44:45.051Z,35.13
2023-04-02T02:45:45.103Z,35.27
2023-04-02T02:46:45.039Z,32.02
2023-04-02T02:47:45.072Z,33.64
2023-04-02T02:48:45.063Z,35.27
2023-04-02T02:49:45.091Z,33.42
2023-04-02T02:50:45.097Z,33.68
2023-04-02T02:51:45.111Z,33.03
2023-04-02T02:52:45.097Z,32.24
2023-04-02T02:53:45.113Z,33.11
2023-04-02T02:54:45.154Z,37.63
2023-04-02T02:55:45.185Z,32.68
2023-04-02T02:56:45.208Z,35.49
2023-04-02T02:57:45.204Z,34.57
2023-04-02T02:58:45.204Z,34.29
2023-04-02T02:59:45.203Z,34.26
2023-04-02T03:00:45.202Z,34.93
2023-04-02T03:01:45.256Z,35.11
2023-04-02T03:02:45.388Z,33.43
2023-04-02T03:03:45.505Z,32.07
2023-04-02T03:04:45.182Z,37.65
2023-04-02T03:05:45.162Z,33.96
2023-04-02T03:06:45.145Z,34.20
2023-04-02T03:07:45.149Z,36.57
2023-04-02T03:08:45.132Z,37.32
2023-04-02T03:09:45.120Z,33.76
2023-04-02T03:10:45.108Z,33.21
2023-04-02T03:11:45.085Z,35.72
2023-04-02T03:12:45.075Z,34.11
2023-04-02T03:13:45.074Z,36.70
2023-04-02T03:14:45.084Z,35.89
2023-04-02T03:15:45.094Z,35.53
2023-04-02T03:16:45.051Z,36.12
2023-04-02T03:17:45.130Z,35.44
2023-04-02T03:18:45.061Z,35.45
2023-04-02T03:19:45.058Z,35.29
2023-04-02T03:20:45.996Z,36.90
2023-04-02T03:21:45.134Z,34.66
2023-04-02T03:22:45.077Z,35.81
2023-04-02T03:23:45.083Z,35.78
2023-04-02T03:24:45.089Z,35.36
2023-04-02T03:25:45.095Z,32.48
2023-04-02T03:26:45.124Z,36.43
2023-04-02T03:27:45.132Z,32.83
2023-04-02T03:28:45.133Z,36.97
2023-04-02T03:29:45.124Z,32.46
2023-04-02T03:30:45.165Z,35.24
2023-04-02T03:31:45.164Z,30.90
2023-04-02T03:32:45.191Z,35.22
2023-04-02T03:33:45.172Z,34.92
2023-04-02T03:34:45.170Z,35.00
2023-04-02T03:35:45.197Z,34.87
2023-04-02T03:36:45.179Z,34.17
2023-04-02T03:37:45.187Z,33.91
2023-04-02T03:38:45.195Z,33.91
2023-04-02T03:39:45.203Z,35.23
2023-04-02T03:40:45.198Z,35.62
2023-04-02T03:41:45.186Z,33.09
2023-04-02T03:42:45.191Z,32.38
2023-04-02T03:43:45.200Z,32.00
2023-04-02T03:44:45.225Z,35.53
2023-04-02T03:45:45.254Z,33.92
2023-04-02T03:46:45.314Z,31.73
2023-04-02T03:47:45.317Z,31.30
2023-04-02T03:48:45.306Z,31.12
2023-04-02T03:49:45.362Z,36.98
2023-04-02T03:50:45.405Z,31.87
2023-04-02T03:51:45.403Z,34.53
2023-04-02T03:52:45.406Z,32.92
2023-04-02T03:53:45.424Z,34.83
2023-04-02T03:54:54.138Z,37.17
2023-04-02T03:55:46.430Z,37.26
2023-04-02T03:56:45.417Z,37.29
2023-04-02T03:57:45.414Z,35.47
2023-04-02T03:58:45.401Z,36.08
2023-04-02T03:59:47.174Z,34.58
2023-04-02T04:00:45.380Z,35.86
2023-04-02T04:01:45.379Z,34.03
2023-04-02T04:02:45.397Z,37.31
2023-04-02T04:03:45.371Z,35.41
2023-04-02T04:04:45.327Z,34.52
2023-04-02T04:05:45.318Z,35.30
2023-04-02T04:06:45.320Z,32.94
2023-04-02T04:07:45.328Z,36.34
2023-04-02T04:08:45.305Z,30.58
2023-04-02T04:09:45.286Z,32.00
2023-04-02T04:10:45.385Z,34.48
2023-04-02T04:11:45.367Z,33.44
2023-04-02T04:12:45.373Z,35.59
2023-04-02T04:13:45.418Z,34.95
2023-04-02T04:14:45.477Z,33.06
2023-04-02T04:15:45.486Z,32.87
2023-04-02T04:16:45.559Z,35.20
2023-04-02T04:17:45.604Z,33.61
2023-04-02T04:18:45.546Z,32.74
2023-04-02T04:19:45.668Z,33.13
2023-04-02T04:20:45.585Z,36.30
2023-04-02T04:21:45.591Z,31.77
2023-04-02T04:22:45.587Z,33.65
2023-04-02T04:23:45.607Z,33.34
2023-04-02T04:24:45.598Z,36.55
2023-04-02T04:25:45.586Z,32.75
2023-04-02T04:26:45.597Z,31.98
2023-04-02T04:27:45.603Z,33.80
2023-04-02T04:28:45.592Z,33.47
2023-04-02T04:29:45.653Z,31.34
2023-04-02T04:30:45.601Z,31.36
2023-04-02T04:31:45.626Z,33.41
2023-04-02T04:32:45.634Z,33.20
2023-04-02T04:33:45.574Z,29.65
2023-04-02T04:34:45.558Z,33.65
2023-04-02T04:35:45.583Z,33.22
2023-04-02T04:36:45.547Z,32.94
2023-04-02T04:37:45.533Z,33.71
2023-04-02T04:38:45.521Z,33.38
2023-04-02T04:39:45.521Z,35.14
2023-04-02T04:40:45.509Z,34.41
2023-04-02T04:41:45.492Z,33.22
2023-04-02T04:42:45.494Z,34.23
2023-04-02T04:43:45.492Z,35.76
2023-04-02T04:44:45.478Z,34.88
2023-04-02T04:45:45.510Z,34.59
2023-04-02T04:46:45.440Z,33.41
2023-04-02T04:47:45.483Z,36.36
2023-04-02T04:48:45.420Z,33.55
2023-04-02T04:49:45.408Z,32.31
2023-04-02T04:50:45.395Z,31.29
2023-04-02T04:51:45.391Z,31.45
2023-04-02T04:52:45.385Z,31.03
2023-04-02T04:53:45.388Z,33.19
2023-04-02T04:54:45.366Z,32.63
2023-04-02T04:55:45.367Z,33.36
2023-04-02T04:56:45.358Z,29.54
2023-04-02T04:57:45.362Z,34.10
2023-04-02T04:58:45.350Z,34.39
2023-04-02T04:59:45.424Z,32.73
2023-04-02T05:00:45.336Z,32.80
2023-04-02T05:01:45.378Z,32.10
2023-04-02T05:02:45.346Z,33.02
2023-04-02T05:03:45.306Z,33.71
2023-04-02T05:04:45.356Z,35.00
2023-04-02T05:05:45.292Z,32.49
2023-04-02T05:06:45.281Z,34.71
2023-04-02T05:07:45.279Z,32.29
2023-04-02T05:08:45.268Z,31.30
2023-04-02T05:09:45.267Z,33.61
2023-04-02T05:10:45.262Z,33.23
2023-04-02T05:11:45.263Z,32.49
2023-04-02T05:12:45.256Z,32.26
2023-04-02T05:13:45.246Z,31.77
2023-04-02T05:14:45.233Z,32.57
2023-04-02T05:15:45.242Z,33.47
2023-04-02T05:16:45.217Z,32.86
2023-04-02T05:17:45.229Z,34.60
2023-04-02T05:18:45.194Z,32.66
2023-04-02T05:19:45.177Z,33.84
2023-04-02T05:20:45.172Z,31.07
2023-04-02T05:21:45.170Z,33.14
2023-04-02T05:22:45.160Z,36.50
2023-04-02T05:23:45.144Z,32.57
2023-04-02T05:24:45.130Z,37.12
2023-04-02T05:25:45.108Z,31.70
2023-04-02T05:26:45.101Z,33.88
2023-04-02T05:27:45.085Z,34.56
2023-04-02T05:28:45.080Z,36.76
2023-04-02T05:29:45.068Z,34.26
2023-04-02T05:30:45.067Z,36.31
2023-04-02T05:31:45.100Z,34.62
2023-04-02T05:32:45.110Z,35.36
2023-04-02T05:33:45.079Z,32.42
2023-04-02T05:34:45.061Z,35.90
2023-04-02T05:35:45.090Z,35.95
2023-04-02T05:36:45.051Z,36.15
2023-04-02T05:37:45.045Z,33.58
2023-04-02T05:38:45.031Z,32.18
2023-04-02T05:39:45.025Z,31.72
2023-04-02T05:40:45.014Z,32.32
2023-04-02T05:41:45.015Z,30.81
2023-04-02T05:42:44.998Z,33.42
2023-04-02T05:43:44.995Z,32.20
2023-04-02T05:44:44.981Z,30.87
2023-04-02T05:45:44.978Z,34.24
2023-04-02T05:46:45.014Z,32.11
2023-04-02T05:47:45.015Z,29.42
2023-04-02T05:48:44.950Z,31.03
2023-04-02T05:49:44.940Z,33.16
2023-04-02T05:50:44.930Z,30.68
2023-04-02T05:51:44.938Z,31.21
2023-04-02T05:52:44.924Z,31.00
2023-04-02T05:53:44.931Z,29.83
2023-04-02T05:54:44.921Z,32.42
2023-04-02T05:55:44.922Z,30.89
2023-04-02T05:56:44.904Z,27.33
2023-04-02T05:57:54.837Z,29.56
2023-04-02T05:58:45.979Z,29.79
2023-04-02T05:59:44.875Z,29.93
2023-04-02T06:00:44.858Z,30.27
2023-04-02T06:01:44.960Z,33.37
2023-04-02T06:02:44.860Z,28.09
2023-04-02T06:03:44.925Z,34.41
2023-04-02T06:04:44.814Z,29.00
2023-04-02T06:05:44.814Z,33.76
2023-04-02T06:06:44.813Z,30.52
2023-04-02T06:07:44.797Z,33.73
2023-04-02T06:08:44.782Z,29.25
2023-04-02T06:09:44.775Z,33.36
2023-04-02T06:10:44.755Z,30.30
2023-04-02T06:11:44.736Z,29.04
2023-04-02T06:12:44.727Z,30.19
2023-04-02T06:13:44.711Z,30.40
2023-04-02T06:14:44.692Z,32.44
2023-04-02T06:15:47.158Z,31.18
2023-04-02T06:16:44.777Z,32.90
2023-04-02T06:17:44.684Z,29.94
2023-04-02T06:18:44.637Z,28.80
2023-04-02T06:19:44.643Z,30.38
2023-04-02T06:20:44.624Z,34.79
2023-04-02T06:21:44.608Z,28.95
2023-04-02T06:22:44.617Z,31.63
2023-04-02T06:23:44.588Z,26.66
2023-04-02T06:24:44.567Z,29.46
2023-04-02T06:25:44.551Z,31.43
2023-04-02T06:26:44.580Z,25.54
2023-04-02T06:27:44.513Z,27.47
2023-04-02T06:28:44.497Z,33.15
2023-04-02T06:29:44.484Z,29.64
2023-04-02T06:30:44.481Z,27.36
2023-04-02T06:31:44.443Z,29.32
2023-04-02T06:32:44.525Z,28.28
2023-04-02T06:33:44.408Z,28.12
2023-04-02T06:34:44.384Z,29.64
2023-04-02T06:35:44.379Z,28.64
2023-04-02T06:36:44.365Z,29.31
2023-04-02T06:37:44.352Z,26.99
2023-04-02T06:38:44.341Z,31.03
2023-04-02T06:39:44.313Z,28.53
2023-04-02T06:40:44.302Z,25.64
2023-04-02T06:41:44.284Z,33.70
2023-04-02T06:42:44.270Z,28.96
2023-04-02T06:43:44.247Z,32.79
2023-04-02T06:44:44.236Z,32.32
2023-04-02T06:45:44.228Z,33.45
2023-04-02T06:46:44.206Z,29.85
2023-04-02T06:47:44.263Z,28.84
2023-04-02T06:48:44.188Z,25.38
2023-04-02T06:49:44.182Z,27.27
2023-04-02T06:50:44.153Z,29.42
2023-04-02T06:51:44.137Z,28.29
2023-04-02T06:52:44.122Z,26.25
2023-04-02T06:53:44.139Z,30.95
2023-04-02T06:54:44.143Z,28.76
2023-04-02T06:55:44.088Z,29.14
2023-04-02T06:56:44.059Z,29.86
2023-04-02T06:57:44.039Z,30.23
2023-04-02T06:58:44.027Z,27.53
2023-04-02T06:59:44.000Z,28.73
2023-04-02T07:00:43.976Z,28.03
2023-04-02T07:01:44.008Z,27.47
2023-04-02T07:02:43.936Z,30.03
2023-04-02T07:03:43.904Z,29.41
2023-04-02T07:04:43.897Z,28.84
2023-04-02T07:05:43.866Z,26.50
2023-04-02T07:06:43.825Z,26.73
2023-04-02T07:07:43.837Z,28.38
2023-04-02T07:08:43.791Z,28.80
2023-04-02T07:09:43.840Z,29.65
2023-04-02T07:10:43.742Z,28.46
2023-04-02T07:11:43.724Z,25.47
2023-04-02T07:12:43.706Z,29.15
2023-04-02T07:13:43.685Z,28.52
2023-04-02T07:14:43.649Z,28.03
2023-04-02T07:15:43.639Z,29.78
2023-04-02T07:16:43.610Z,28.61
2023-04-02T07:17:43.690Z,28.88
2023-04-02T07:18:43.564Z,28.15
2023-04-02T07:19:43.535Z,28.74
2023-04-02T07:20:43.568Z,29.28
2023-04-02T07:21:43.493Z,29.10
2023-04-02T07:22:43.470Z,26.23
2023-04-02T07:23:43.453Z,27.70
2023-04-02T07:24:43.434Z,28.63
2023-04-02T07:25:43.409Z,27.51
2023-04-02T07:26:43.392Z,26.57
2023-04-02T07:27:43.371Z,26.85
2023-04-02T07:28:43.354Z,27.32
2023-04-02T07:29:43.342Z,30.26
2023-04-02T07:30:43.318Z,28.36
2023-04-02T07:31:43.409Z,29.56
2023-04-02T07:32:43.314Z,33.17
2023-04-02T07:33:43.246Z,27.91
2023-04-02T07:34:43.238Z,28.55
2023-04-02T07:35:43.243Z,31.50
2023-04-02T07:36:43.189Z,29.21
2023-04-02T07:37:43.175Z,27.16
2023-04-02T07:38:43.162Z,27.07
2023-04-02T07:39:43.129Z,27.98
2023-04-02T07:40:43.108Z,27.66
2023-04-02T07:41:43.107Z,28.59
2023-04-02T07:42:43.074Z,31.65
2023-04-02T07:43:43.111Z,28.46
2023-04-02T07:44:43.154Z,30.66
2023-04-02T07:45:43.185Z,30.46
2023-04-02T07:46:43.261Z,29.21
2023-04-02T07:47:43.324Z,28.36
2023-04-02T07:48:43.301Z,26.40
2023-04-02T07:49:43.331Z,27.85
2023-04-02T07:50:43.375Z,30.26
2023-04-02T07:51:43.399Z,26.07
2023-04-02T07:52:43.438Z,25.82
2023-04-02T07:53:43.473Z,28.17
2023-04-02T07:54:43.487Z,28.96
2023-04-02T07:55:43.514Z,27.63
2023-04-02T07:56:43.549Z,28.50
2023-04-02T07:57:46.381Z,27.72
2023-04-02T07:58:43.552Z,29.09
2023-04-02T07:59:43.524Z,29.74
2023-04-02T08:00:43.509Z,30.82
2023-04-02T08:01:43.523Z,28.22
2023-04-02T08:02:43.458Z,27.62
2023-04-02T08:03:43.481Z,30.17
2023-04-02T08:04:43.383Z,29.98
2023-04-02T08:05:43.372Z,28.61
2023-04-02T08:06:43.359Z,27.15
2023-04-02T08:07:43.326Z,29.21
2023-04-02T08:08:43.311Z,28.74
2023-04-02T08:09:43.283Z,27.20
2023-04-02T08:10:43.267Z,29.21
2023-04-02T08:11:43.261Z,25.00
2023-04-02T08:12:43.229Z,30.89
2023-04-02T08:13:43.244Z,28.87
2023-04-02T08:14:43.191Z,28.78
2023-04-02T08:15:43.159Z,30.35
2023-04-02T08:16:43.179Z,29.84
2023-04-02T08:17:43.134Z,27.67
2023-04-02T08:18:43.070Z,29.65
2023-04-02T08:19:54.300Z,34.44
2023-04-02T08:20:44.096Z,34.56
2023-04-02T08:21:42.987Z,34.74
2023-04-02T08:22:42.964Z,33.98
2023-04-02T08:23:42.960Z,32.53
2023-04-02T08:24:42.921Z,32.60
2023-04-02T08:25:42.903Z,33.94
2023-04-02T08:26:45.009Z,33.42
2023-04-02T08:27:43.039Z,32.72
2023-04-02T08:28:43.030Z,34.72
2023-04-02T08:29:43.047Z,33.04
2023-04-02T08:30:43.094Z,35.09
2023-04-02T08:31:43.096Z,35.26
2023-04-02T08:32:43.192Z,35.60
2023-04-02T08:33:43.168Z,34.51
2023-04-02T08:34:43.162Z,35.55
2023-04-02T08:35:43.211Z,36.61
2023-04-02T08:36:43.274Z,34.37
2023-04-02T08:37:43.238Z,34.25
2023-04-02T08:38:43.271Z,36.50
2023-04-02T08:39:43.300Z,34.42
2023-04-02T08:40:43.318Z,34.31
2023-04-02T08:41:43.351Z,34.90
2023-04-02T08:42:43.381Z,35.53
2023-04-02T08:43:43.417Z,34.12
2023-04-02T08:44:43.447Z,37.64
2023-04-02T08:45:43.612Z,36.16
2023-04-02T08:46:43.505Z,36.99
2023-04-02T08:47:43.554Z,33.62
2023-04-02T08:48:43.567Z,37.51
2023-04-02T08:49:43.597Z,37.36
2023-04-02T08:50:43.628Z,36.22
2023-04-02T08:51:43.657Z,38.53
2023-04-02T08:52:43.684Z,36.14
2023-04-02T08:53:43.722Z,35.63
2023-04-02T08:54:43.792Z,38.39
2023-04-02T08:55:43.812Z,37.04
2023-04-02T08:56:43.802Z,37.78
2023-04-02T08:57:43.845Z,38.63
2023-04-02T08:58:43.870Z,37.28
2023-04-02T08:59:43.897Z,37.94
2023-04-02T09:00:43.922Z,40.28
2023-04-02T09:01:44.073Z,35.84
2023-04-02T09:02:44.022Z,38.67
2023-04-02T09:03:44.022Z,37.86
2023-04-02T09:04:44.073Z,37.16
2023-04-02T09:05:44.073Z,38.59
2023-04-02T09:06:44.125Z,35.82
2023-04-02T09:07:44.130Z,39.38
2023-04-02T09:08:44.159Z,36.77
2023-04-02T09:09:44.180Z,38.06
2023-04-02T09:10:44.223Z,39.26
2023-04-02T09:11:44.236Z,35.80
2023-04-02T09:12:44.263Z,35.66
2023-04-02T09:13:44.291Z,38.56
2023-04-02T09:14:44.333Z,37.99
2023-04-02T09:15:44.363Z,35.72
2023-04-02T09:16:44.371Z,36.45
2023-04-02T09:17:53.610Z,36.03
2023-04-02T09:18:45.477Z,36.24
2023-04-02T09:19:44.357Z,36.78
2023-04-02T09:20:44.336Z,36.28
2023-04-02T09:21:44.317Z,37.24
2023-04-02T09:22:44.297Z,36.19
2023-04-02T09:23:44.295Z,35.34
2023-04-02T09:24:44.273Z,34.56
2023-04-02T09:25:48.491Z,36.25
2023-04-02T09:26:45.238Z,36.43
2023-04-02T09:27:44.224Z,36.74
2023-04-02T09:28:44.204Z,37.17
2023-04-02T09:29:44.203Z,36.87
2023-04-02T09:30:44.177Z,31.88
2023-04-02T09:31:44.179Z,35.44
2023-04-02T09:32:44.160Z,33.07
2023-04-02T09:33:44.141Z,34.38
2023-04-02T09:34:44.095Z,32.27
2023-04-02T09:35:44.273Z,29.64
2023-04-02T09:36:44.074Z,28.52
2023-04-02T09:37:44.047Z,27.24
2023-04-02T09:38:44.019Z,26.66
2023-04-02T09:39:44.005Z,28.90
2023-04-02T09:40:43.996Z,32.85
2023-04-02T09:41:48.196Z,32.48
2023-04-02T09:42:44.961Z,32.59
2023-04-02T09:43:43.944Z,32.92
2023-04-02T09:44:43.928Z,31.47
2023-04-02T09:45:43.905Z,29.30
2023-04-02T09:46:43.915Z,30.70
2023-04-02T09:47:43.897Z,28.17
2023-04-02T09:48:43.955Z,29.89
2023-04-02T09:49:43.843Z,29.07
2023-04-02T09:50:43.832Z,27.86
2023-04-02T09:51:43.801Z,26.85
2023-04-02T09:52:43.769Z,29.02
2023-04-02T09:53:43.757Z,32.40
2023-04-02T09:54:43.733Z,28.19
2023-04-02T09:55:43.708Z,27.30
2023-04-02T09:56:43.742Z,32.61
2023-04-02T09:57:43.770Z,31.39
2023-04-02T09:58:43.748Z,28.83
2023-04-02T09:59:43.744Z,29.62
2023-04-02T10:00:44.036Z,30.53
2023-04-02T10:01:43.793Z,30.77
2023-04-02T10:02:43.797Z,28.45
2023-04-02T10:03:43.769Z,27.61
2023-04-02T10:04:43.841Z,31.87
2023-04-02T10:05:44.023Z,30.55
2023-04-02T10:06:43.798Z,31.59
2023-04-02T10:07:43.905Z,31.94
2023-04-02T10:08:43.805Z,31.32
2023-04-02T10:09:43.818Z,29.84
2023-04-02T10:10:43.836Z,30.13
2023-04-02T10:11:46.701Z,31.74
2023-04-02T10:12:43.821Z,33.48
2023-04-02T10:13:43.815Z,31.91
2023-04-02T10:14:43.785Z,31.88
2023-04-02T10:15:43.758Z,32.32
2023-04-02T10:16:43.812Z,33.72
2023-04-02T10:17:43.729Z,33.36
2023-04-02T10:18:43.690Z,29.38
2023-04-02T10:19:43.679Z,32.97
2023-04-02T10:20:50.964Z,31.36
2023-04-02T10:21:44.618Z,31.65
2023-04-02T10:22:43.589Z,32.39
2023-04-02T10:23:43.602Z,32.29
2023-04-02T10:24:43.540Z,33.48
2023-04-02T10:25:43.519Z,34.47
2023-04-02T10:26:43.502Z,34.10
2023-04-02T10:27:43.487Z,33.84
2023-04-02T10:28:43.455Z,37.98
2023-04-02T10:29:43.439Z,37.84
2023-04-02T10:30:43.455Z,36.57
2023-04-02T10:31:43.400Z,31.17
2023-04-02T10:32:43.441Z,34.30
2023-04-02T10:33:43.376Z,36.24
2023-04-02T10:34:43.416Z,32.34
2023-04-02T10:35:43.348Z,36.21
2023-04-02T10:36:43.308Z,35.26
2023-04-02T10:37:43.296Z,36.03
2023-04-02T10:38:43.266Z,36.29
2023-04-02T10:39:43.264Z,35.32
2023-04-02T10:40:43.281Z,35.59
2023-04-02T10:41:43.294Z,35.18
2023-04-02T10:42:43.300Z,38.46
2023-04-02T10:43:43.318Z,37.27
2023-04-02T10:44:43.333Z,36.40
2023-04-02T10:45:43.389Z,38.00
2023-04-02T10:46:43.523Z,39.13
2023-04-02T10:47:43.424Z,37.70
2023-04-02T10:48:43.391Z,36.87
2023-04-02T10:49:43.482Z,35.66
2023-04-02T10:50:43.418Z,39.77
2023-04-02T10:51:43.427Z,37.67
2023-04-02T10:52:43.455Z,38.88
2023-04-02T10:53:43.468Z,39.62
2023-04-02T10:54:43.476Z,37.98
2023-04-02T10:55:43.489Z,38.11
2023-04-02T10:56:50.665Z,37.97
2023-04-02T10:57:44.500Z,38.19
2023-04-02T10:58:43.468Z,38.69
2023-04-02T10:59:43.453Z,39.48
2023-04-02T11:00:43.424Z,38.74
2023-04-02T11:01:43.435Z,38.73
2023-04-02T11:02:43.435Z,37.47
2023-04-02T11:03:43.487Z,40.12
2023-04-02T11:04:43.322Z,38.10
2023-04-02T11:05:43.326Z,37.99
2023-04-02T11:06:43.279Z,36.78
2023-04-02T11:07:43.251Z,39.80
2023-04-02T11:08:43.226Z,40.82
2023-04-02T11:09:43.198Z,41.78
2023-04-02T11:10:43.169Z,39.89
2023-04-02T11:11:43.162Z,41.23
2023-04-02T11:12:43.184Z,37.78
2023-04-02T11:13:43.195Z,39.50
2023-04-02T11:14:43.219Z,41.21
2023-04-02T11:15:43.257Z,38.89
2023-04-02T11:16:44.784Z,37.93
2023-04-02T11:17:43.394Z,36.20
2023-04-02T11:18:43.285Z,35.96
2023-04-02T11:19:43.306Z,36.64
2023-04-02T11:20:43.437Z,38.74
2023-04-02T11:21:57.263Z,38.60
2023-04-02T11:22:44.314Z,38.76
2023-04-02T11:23:43.294Z,39.12
2023-04-02T11:24:43.258Z,38.37
2023-04-02T11:25:43.230Z,39.94
2023-04-02T11:26:43.198Z,38.18
2023-04-02T11:27:43.167Z,40.03
2023-04-02T11:28:43.135Z,39.55
2023-04-02T11:29:43.107Z,38.84
2023-04-02T11:30:43.069Z,40.65
2023-04-02T11:31:43.113Z,38.33
2023-04-02T11:32:43.238Z,39.89
2023-04-02T11:33:45.378Z,38.06
2023-04-02T11:34:42.984Z,38.46
2023-04-02T11:35:42.984Z,38.37
2023-04-02T11:36:42.953Z,39.82
2023-04-02T11:37:42.924Z,37.36
2023-04-02T11:38:42.894Z,36.28
2023-04-02T11:39:42.883Z,38.92
2023-04-02T11:40:42.858Z,39.10
2023-04-02T11:41:42.829Z,37.57
2023-04-02T11:42:42.811Z,38.78
2023-04-02T11:43:42.804Z,37.51
2023-04-02T11:44:42.782Z,36.95
2023-04-02T11:45:52.034Z,38.76
2023-04-02T11:46:43.801Z,38.99
2023-04-02T11:47:42.752Z,39.43
2023-04-02T11:48:42.718Z,39.06
2023-04-02T11:49:43.682Z,39.04
2023-04-02T11:50:42.660Z,39.59
2023-04-02T11:51:42.629Z,39.62
2023-04-02T11:52:42.607Z,38.97
2023-04-02T11:53:42.581Z,40.59
2023-04-02T11:54:42.568Z,38.10
2023-04-02T11:55:42.549Z,41.27
2023-04-02T11:56:42.517Z,39.17
2023-04-02T11:57:42.540Z,40.13
2023-04-02T11:58:42.463Z,41.56
2023-04-02T11:59:42.445Z,36.03
2023-04-02T12:00:42.415Z,37.73
2023-04-02T12:01:42.461Z,38.00
2023-04-02T12:02:42.613Z,38.13
2023-04-02T12:03:42.393Z,40.49
2023-04-02T12:04:42.426Z,36.04
2023-04-02T12:05:42.516Z,36.92
2023-04-02T12:06:42.501Z,34.70
2023-04-02T12:07:42.499Z,37.03
2023-04-02T12:08:54.732Z,37.23
2023-04-02T12:09:43.493Z,37.40
2023-04-02T12:10:42.472Z,38.02
2023-04-02T12:11:42.458Z,38.49
2023-04-02T12:12:42.451Z,37.84
2023-04-02T12:13:42.425Z,39.33
2023-04-02T12:14:42.420Z,38.80
2023-04-02T12:15:42.381Z,39.77
2023-04-02T12:16:42.438Z,36.87
2023-04-02T12:17:42.376Z,39.03
2023-04-02T12:18:42.305Z,37.61
2023-04-02T12:19:42.284Z,38.25
2023-04-02T12:20:42.250Z,39.46
2023-04-02T12:21:42.223Z,38.39
2023-04-02T12:22:42.225Z,39.61
2023-04-02T12:23:42.248Z,39.51
2023-04-02T12:24:42.276Z,38.79
2023-04-02T12:25:42.301Z,37.63
2023-04-02T12:26:42.371Z,35.74
2023-04-02T12:27:42.358Z,38.04
2023-04-02T12:28:42.396Z,40.41
2023-04-02T12:29:42.434Z,36.79
2023-04-02T12:30:42.454Z,35.62
2023-04-02T12:31:42.466Z,37.44
2023-04-02T12:32:42.521Z,34.53
2023-04-02T12:33:42.523Z,38.26
2023-04-02T12:34:42.538Z,36.91
2023-04-02T12:35:42.691Z,38.22
2023-04-02T12:36:42.591Z,33.70
2023-04-02T12:37:42.616Z,37.92
2023-04-02T12:38:42.637Z,36.61
2023-04-02T12:39:42.675Z,38.78
2023-04-02T12:40:42.700Z,37.62
2023-04-02T12:41:42.722Z,37.97
2023-04-02T12:42:42.754Z,36.05
2023-04-02T12:43:42.772Z,37.59
2023-04-02T12:44:42.795Z,36.97
2023-04-02T12:45:42.848Z,37.64
2023-04-02T12:46:42.930Z,34.14
2023-04-02T12:47:42.909Z,36.97
2023-04-02T12:48:42.916Z,36.49
2023-04-02T12:49:42.951Z,37.90
2023-04-02T12:50:42.977Z,34.34
2023-04-02T12:51:43.003Z,37.61
2023-04-02T12:52:43.044Z,37.33